createdAt,value
2018-02-23T00:00:49.929Z,65.51
2018-02-23T00:02:50.863Z,66.31
2018-02-23T00:03:51.328Z,66.51
2018-02-23T00:04:51.840Z,66.44
2018-02-23T00:05:52.262Z,66.72
2018-02-23T00:06:52.729Z,67.08
2018-02-23T00:07:53.192Z,67.00
2018-02-23T00:08:53.659Z,67.13
2018-02-23T00:09:54.124Z,67.13
2018-02-23T00:10:54.590Z,67.13
2018-02-23T00:12:55.521Z,66.80
2018-02-23T00:13:56.191Z,66.57
2018-02-23T00:14:56.509Z,66.42
2018-02-23T00:15:56.917Z,66.42
2018-02-23T00:16:57.388Z,66.27
2018-02-23T00:18:58.318Z,66.06
2018-02-23T00:19:58.784Z,65.93
2018-02-23T00:20:59.255Z,65.62
2018-02-23T00:21:59.719Z,65.52
2018-02-23T00:23:00.177Z,65.44
2018-02-23T00:24:00.648Z,65.41
2018-02-23T00:25:01.114Z,65.23
2018-02-23T00:26:01.584Z,65.36
2018-02-23T00:27:02.043Z,65.33
2018-02-23T00:28:02.517Z,65.26
2018-02-23T00:29:02.979Z,65.02
2018-02-23T00:30:03.447Z,64.87
2018-02-23T00:32:04.378Z,64.65
2018-02-23T00:34:05.305Z,64.58
2018-02-23T00:35:05.774Z,64.71
2018-02-23T00:36:06.242Z,64.63
2018-02-23T00:37:06.707Z,64.57
2018-02-23T00:38:07.172Z,64.55
2018-02-23T00:39:07.640Z,64.68
2018-02-23T00:40:08.105Z,64.70
2018-02-23T00:41:08.571Z,64.60
2018-02-23T00:42:09.037Z,64.62
2018-02-23T00:43:09.503Z,64.67
2018-02-23T00:45:10.430Z,64.83
2018-02-23T00:46:10.904Z,64.91
2018-02-23T00:47:11.367Z,64.78
2018-02-23T00:48:11.835Z,64.67
2018-02-23T00:49:12.299Z,64.67
2018-02-23T00:50:12.817Z,64.57
2018-02-23T00:51:13.229Z,64.60
2018-02-23T00:52:13.692Z,64.67
2018-02-23T00:53:14.364Z,64.64
2018-02-23T00:54:14.631Z,64.57
2018-02-23T00:55:15.095Z,64.46
2018-02-23T00:56:15.557Z,64.43
2018-02-23T00:57:16.026Z,64.43
2018-02-23T00:58:16.493Z,64.27
2018-02-23T00:59:16.958Z,64.43
2018-02-23T01:00:17.420Z,64.22
2018-02-23T01:01:17.891Z,64.11
2018-02-23T01:02:18.355Z,63.96
2018-02-23T01:03:18.818Z,63.88
2018-02-23T01:04:19.288Z,63.90
2018-02-23T01:05:19.956Z,63.85
2018-02-23T01:06:20.222Z,63.93
2018-02-23T01:07:20.682Z,63.82
2018-02-23T01:08:21.155Z,63.79
2018-02-23T01:10:33.978Z,63.61
2018-02-23T01:11:22.549Z,63.61
2018-02-23T01:12:23.017Z,63.66
2018-02-23T01:13:23.482Z,63.68
2018-02-23T01:14:23.945Z,63.68
2018-02-23T01:15:24.415Z,63.60
2018-02-23T01:16:24.879Z,63.63
2018-02-23T01:17:25.349Z,63.60
2018-02-23T01:18:25.809Z,63.57
2018-02-23T01:19:26.278Z,63.60
2018-02-23T01:20:26.793Z,63.49
2018-02-23T01:21:27.214Z,63.39
2018-02-23T01:22:27.677Z,63.33
2018-02-23T01:23:28.143Z,63.25
2018-02-23T01:24:28.608Z,63.17
2018-02-23T01:25:29.068Z,63.15
2018-02-23T01:26:29.539Z,63.12
2018-02-23T01:27:30.004Z,63.14
2018-02-23T01:28:30.472Z,63.14
2018-02-23T01:29:30.938Z,63.04
2018-02-23T01:30:31.455Z,63.03
2018-02-23T01:31:31.869Z,62.96
2018-02-23T01:32:32.336Z,62.87
2018-02-23T01:33:32.804Z,62.74
2018-02-23T01:34:33.268Z,62.74
2018-02-23T01:36:34.195Z,62.61
2018-02-23T01:37:34.665Z,62.58
2018-02-23T01:38:35.131Z,62.66
2018-02-23T01:39:35.597Z,62.55
2018-02-23T01:40:36.063Z,62.47
2018-02-23T01:41:36.531Z,62.49
2018-02-23T01:42:37.015Z,62.52
2018-02-23T01:43:37.463Z,62.52
2018-02-23T01:44:37.929Z,62.44
2018-02-23T01:45:38.393Z,62.31
2018-02-23T01:46:38.860Z,62.20
2018-02-23T01:47:39.321Z,62.12
2018-02-23T01:48:39.791Z,62.09
2018-02-23T01:49:40.257Z,62.01
2018-02-23T01:50:40.724Z,61.98
2018-02-23T01:51:41.189Z,61.93
2018-02-23T01:52:41.858Z,61.92
2018-02-23T01:53:42.121Z,61.82
2018-02-23T01:54:42.582Z,61.71
2018-02-23T01:55:43.055Z,61.66
2018-02-23T01:56:43.518Z,61.63
2018-02-23T01:57:43.984Z,61.60
2018-02-23T01:58:44.447Z,61.55
2018-02-23T01:59:44.915Z,61.52
2018-02-23T02:00:45.431Z,61.49
2018-02-23T02:01:45.856Z,61.46
2018-02-23T02:02:46.314Z,61.49
2018-02-23T02:03:46.780Z,61.38
2018-02-23T02:04:47.245Z,61.35
2018-02-23T02:05:47.759Z,61.35
2018-02-23T02:06:48.179Z,61.27
2018-02-23T02:07:48.642Z,61.21
2018-02-23T02:08:49.112Z,61.21
2018-02-23T02:09:49.568Z,61.29
2018-02-23T02:10:50.090Z,61.50
2018-02-23T02:11:50.553Z,61.82
2018-02-23T02:12:50.971Z,62.32
2018-02-23T02:13:51.435Z,62.16
2018-02-23T02:14:51.902Z,61.98
2018-02-23T02:15:52.367Z,61.87
2018-02-23T02:16:52.831Z,61.82
2018-02-23T02:17:53.301Z,61.81
2018-02-23T02:18:53.766Z,61.74
2018-02-23T02:19:54.230Z,61.65
2018-02-23T02:20:54.694Z,61.60
2018-02-23T02:21:55.160Z,61.55
2018-02-23T02:22:55.628Z,61.41
2018-02-23T02:23:56.094Z,61.41
2018-02-23T02:26:08.051Z,61.30
2018-02-23T02:27:57.949Z,61.27
2018-02-23T02:28:58.418Z,61.25
2018-02-23T02:29:59.088Z,61.22
2018-02-23T02:30:59.358Z,61.19
2018-02-23T02:31:59.817Z,61.19
2018-02-23T02:33:00.280Z,61.19
2018-02-23T02:35:01.212Z,61.27
2018-02-23T02:36:01.729Z,61.58
2018-02-23T02:37:02.143Z,61.66
2018-02-23T02:38:02.608Z,61.50
2018-02-23T02:39:03.081Z,61.50
2018-02-23T02:40:03.544Z,61.42
2018-02-23T02:41:04.002Z,61.40
2018-02-23T02:42:04.470Z,61.39
2018-02-23T02:43:04.939Z,61.34
2018-02-23T02:44:05.400Z,61.34
2018-02-23T02:45:05.868Z,61.36
2018-02-23T02:47:06.795Z,61.34
2018-02-23T02:48:07.262Z,61.34
2018-02-23T02:49:07.727Z,61.31
2018-02-23T02:50:08.186Z,61.33
2018-02-23T02:51:08.857Z,61.39
2018-02-23T02:52:09.123Z,61.30
2018-02-23T02:53:09.587Z,61.30
2018-02-23T02:54:10.050Z,61.33
2018-02-23T02:55:10.518Z,61.33
2018-02-23T02:56:10.979Z,61.38
2018-02-23T02:57:11.444Z,61.30
2018-02-23T02:59:12.378Z,61.33
2018-02-23T03:00:12.841Z,61.35
2018-02-23T03:01:13.301Z,61.32
2018-02-23T03:02:13.771Z,61.38
2018-02-23T03:03:14.237Z,61.35
2018-02-23T03:04:14.704Z,61.40
2018-02-23T03:05:15.166Z,61.40
2018-02-23T03:06:15.683Z,61.37
2018-02-23T03:08:16.559Z,61.45
2018-02-23T03:09:17.027Z,61.42
2018-02-23T03:10:17.491Z,61.40
2018-02-23T03:11:18.007Z,61.40
2018-02-23T03:12:18.428Z,61.45
2018-02-23T03:14:19.352Z,61.47
2018-02-23T03:15:19.816Z,61.48
2018-02-23T03:16:20.282Z,61.45
2018-02-23T03:17:20.746Z,61.52
2018-02-23T03:18:21.413Z,61.47
2018-02-23T03:19:21.672Z,61.50
2018-02-23T03:20:22.480Z,61.52
2018-02-23T03:21:22.605Z,61.55
2018-02-23T03:22:23.071Z,61.52
2018-02-23T03:23:23.529Z,61.52
2018-02-23T03:24:24.001Z,61.52
2018-02-23T03:26:24.931Z,61.52
2018-02-23T03:27:25.394Z,61.52
2018-02-23T03:28:25.857Z,61.52
2018-02-23T03:29:26.323Z,61.55
2018-02-23T03:30:26.787Z,61.52
2018-02-23T03:31:27.255Z,61.55
2018-02-23T03:32:27.721Z,61.54
2018-02-23T03:33:28.183Z,61.52
2018-02-23T03:34:28.650Z,61.57
2018-02-23T03:35:29.115Z,61.52
2018-02-23T03:36:29.580Z,61.54
2018-02-23T03:37:30.045Z,61.57
2018-02-23T03:38:30.511Z,61.46
2018-02-23T03:39:30.974Z,61.44
2018-02-23T03:40:31.440Z,61.46
2018-02-23T03:41:31.900Z,61.49
2018-02-23T03:42:32.371Z,61.54
2018-02-23T03:43:32.836Z,61.54
2018-02-23T03:44:33.299Z,61.57
2018-02-23T03:45:33.765Z,61.54
2018-02-23T03:46:34.229Z,61.57
2018-02-23T03:47:34.694Z,61.59
2018-02-23T03:48:35.160Z,61.59
2018-02-23T03:49:35.626Z,61.54
2018-02-23T03:50:36.092Z,61.59
2018-02-23T03:51:48.141Z,61.64
2018-02-23T03:52:37.218Z,61.64
2018-02-23T03:53:37.487Z,61.61
2018-02-23T03:54:37.950Z,61.59
2018-02-23T03:55:38.415Z,61.56
2018-02-23T03:56:38.931Z,61.54
2018-02-23T03:57:39.345Z,61.51
2018-02-23T03:58:39.810Z,61.51
2018-02-23T03:59:40.273Z,61.51
2018-02-23T04:00:40.738Z,61.48
2018-02-23T04:01:53.145Z,61.42
2018-02-23T04:02:41.672Z,61.42
2018-02-23T04:03:42.132Z,61.40
2018-02-23T04:04:42.602Z,61.45
2018-02-23T04:05:43.066Z,61.50
2018-02-23T04:06:43.531Z,61.77
2018-02-23T04:07:43.996Z,61.95
2018-02-23T04:08:44.461Z,62.35
2018-02-23T04:09:44.924Z,62.32
2018-02-23T04:10:45.386Z,62.59
2018-02-23T04:11:57.135Z,62.72
2018-02-23T04:12:46.320Z,62.98
2018-02-23T04:13:46.785Z,63.82
2018-02-23T04:14:47.247Z,64.01
2018-02-23T04:15:47.717Z,63.77
2018-02-23T04:17:00.170Z,63.67
2018-02-23T04:17:48.647Z,63.49
2018-02-23T04:18:49.111Z,63.38
2018-02-23T04:19:49.576Z,63.36
2018-02-23T04:20:50.040Z,63.88
2018-02-23T04:21:50.501Z,63.75
2018-02-23T04:22:50.970Z,63.59
2018-02-23T04:23:51.439Z,63.38
2018-02-23T04:24:51.902Z,63.17
2018-02-23T04:25:52.365Z,63.02
2018-02-23T04:27:04.160Z,62.99
2018-02-23T04:27:53.296Z,62.94
2018-02-23T04:28:53.761Z,62.78
2018-02-23T04:29:54.224Z,62.68
2018-02-23T04:30:54.693Z,62.65
2018-02-23T04:32:06.185Z,62.54
2018-02-23T04:32:55.616Z,62.44
2018-02-23T04:33:56.086Z,62.36
2018-02-23T04:34:56.551Z,62.22
2018-02-23T04:35:57.017Z,62.20
2018-02-23T04:37:09.170Z,62.09
2018-02-23T04:37:57.946Z,62.06
2018-02-23T04:38:58.411Z,62.04
2018-02-23T04:39:58.871Z,62.06
2018-02-23T04:42:11.191Z,61.88
2018-02-23T04:43:00.271Z,61.74
2018-02-23T04:44:00.733Z,61.69
2018-02-23T04:45:01.403Z,61.69
2018-02-23T04:46:01.666Z,61.77
2018-02-23T04:47:02.131Z,61.82
2018-02-23T04:48:02.597Z,61.85
2018-02-23T04:49:03.062Z,61.79
2018-02-23T04:50:03.527Z,61.74
2018-02-23T04:51:03.986Z,61.71
2018-02-23T04:52:16.194Z,61.74
2018-02-23T04:53:04.921Z,61.68
2018-02-23T04:55:05.848Z,61.69
2018-02-23T04:56:06.318Z,61.60
2018-02-23T04:57:06.781Z,61.58
2018-02-23T04:58:07.246Z,61.60
2018-02-23T05:00:08.178Z,61.58
2018-02-23T05:01:08.642Z,61.58
2018-02-23T05:02:09.103Z,61.66
2018-02-23T05:04:10.038Z,61.66
2018-02-23T05:05:10.501Z,61.60
2018-02-23T05:06:10.964Z,61.55
2018-02-23T05:07:11.475Z,61.55
2018-02-23T05:08:11.897Z,61.57
2018-02-23T05:09:12.362Z,61.55
2018-02-23T05:10:12.826Z,61.52
2018-02-23T05:11:13.494Z,61.47
2018-02-23T05:12:13.755Z,61.49
2018-02-23T05:13:14.221Z,61.55
2018-02-23T05:14:14.684Z,61.55
2018-02-23T05:16:15.616Z,61.55
2018-02-23T05:17:16.084Z,61.57
2018-02-23T05:18:16.542Z,61.63
2018-02-23T05:19:17.016Z,61.63
2018-02-23T05:20:17.476Z,61.60
2018-02-23T05:21:17.947Z,61.65
2018-02-23T05:22:18.402Z,61.62
2018-02-23T05:23:18.871Z,61.63
2018-02-23T05:24:19.331Z,61.63
2018-02-23T05:25:19.799Z,61.62
2018-02-23T05:26:20.265Z,61.65
2018-02-23T05:27:20.781Z,61.65
2018-02-23T05:28:21.196Z,61.71
2018-02-23T05:29:21.660Z,61.71
2018-02-23T05:30:22.126Z,61.73
2018-02-23T05:31:22.586Z,61.73
2018-02-23T05:32:23.106Z,61.76
2018-02-23T05:33:23.519Z,61.73
2018-02-23T05:34:23.983Z,61.76
2018-02-23T05:35:24.649Z,61.76
2018-02-23T05:37:25.430Z,61.76
2018-02-23T05:38:25.845Z,61.76
2018-02-23T05:39:26.305Z,61.76
2018-02-23T05:40:26.770Z,61.81
2018-02-23T05:41:27.240Z,61.81
2018-02-23T05:42:27.705Z,61.81
2018-02-23T05:43:28.170Z,61.78
2018-02-23T05:44:28.636Z,61.81
2018-02-23T05:45:29.098Z,61.81
2018-02-23T05:46:29.560Z,61.86
2018-02-23T05:47:30.080Z,61.83
2018-02-23T05:48:30.493Z,61.86
2018-02-23T05:49:30.959Z,61.91
2018-02-23T05:50:31.422Z,61.94
2018-02-23T05:51:31.886Z,61.96
2018-02-23T05:52:32.396Z,61.99
2018-02-23T05:53:32.817Z,62.02
2018-02-23T05:55:33.747Z,62.05
2018-02-23T05:56:34.212Z,62.13
2018-02-23T05:57:34.882Z,62.12
2018-02-23T05:58:35.141Z,62.13
2018-02-23T05:59:35.609Z,62.12
2018-02-23T06:00:36.067Z,62.18
2018-02-23T06:01:36.534Z,62.28
2018-02-23T06:03:37.464Z,62.34
2018-02-23T06:04:37.933Z,62.34
2018-02-23T06:05:38.397Z,62.34
2018-02-23T06:06:39.060Z,62.34
2018-02-23T06:07:39.325Z,62.36
2018-02-23T06:08:39.788Z,62.39
2018-02-23T06:09:40.253Z,62.42
2018-02-23T06:10:40.713Z,62.42
2018-02-23T06:11:41.180Z,62.41
2018-02-23T06:12:41.747Z,62.44
2018-02-23T06:13:42.111Z,62.44
2018-02-23T06:14:42.576Z,62.47
2018-02-23T06:15:43.043Z,62.50
2018-02-23T06:16:43.507Z,62.50
2018-02-23T06:17:43.971Z,62.53
2018-02-23T06:18:44.435Z,62.52
2018-02-23T06:19:44.895Z,62.55
2018-02-23T06:20:45.365Z,62.58
2018-02-23T06:21:45.829Z,62.58
2018-02-23T06:22:57.321Z,62.55
2018-02-23T06:23:46.753Z,62.60
2018-02-23T06:24:47.224Z,62.60
2018-02-23T06:25:47.682Z,62.63
2018-02-23T06:26:48.154Z,62.66
2018-02-23T06:28:49.085Z,62.68
2018-02-23T06:29:49.546Z,62.68
2018-02-23T06:30:50.013Z,62.74
2018-02-23T06:31:50.476Z,62.76
2018-02-23T06:33:02.322Z,62.79
2018-02-23T06:33:51.403Z,62.79
2018-02-23T06:34:51.865Z,62.82
2018-02-23T06:35:52.333Z,62.85
2018-02-23T06:36:52.798Z,62.90
2018-02-23T06:37:53.311Z,62.90
2018-02-23T06:38:53.723Z,62.95
2018-02-23T06:39:54.190Z,62.95
2018-02-23T06:40:54.656Z,63.01
2018-02-23T06:41:55.119Z,63.01
2018-02-23T06:42:55.585Z,63.03
2018-02-23T06:43:56.059Z,63.09
2018-02-23T06:44:56.513Z,63.11
2018-02-23T06:45:56.978Z,63.14
2018-02-23T06:46:57.442Z,63.14
2018-02-23T06:49:10.312Z,63.20
2018-02-23T06:49:58.842Z,63.22
2018-02-23T06:50:59.301Z,63.23
2018-02-23T06:51:59.767Z,63.23
2018-02-23T06:53:00.231Z,63.23
2018-02-23T06:54:00.700Z,63.23
2018-02-23T06:55:01.158Z,63.26
2018-02-23T06:56:01.620Z,63.26
2018-02-23T06:57:02.094Z,63.26
2018-02-23T06:59:03.068Z,63.29
2018-02-23T07:00:03.482Z,63.27
2018-02-23T07:01:03.950Z,63.27
2018-02-23T07:02:04.413Z,63.25
2018-02-23T07:03:04.876Z,63.25
2018-02-23T07:04:05.392Z,63.23
2018-02-23T07:05:05.805Z,63.20
2018-02-23T07:06:06.270Z,63.16
2018-02-23T07:07:06.731Z,63.13
2018-02-23T07:08:07.200Z,63.11
2018-02-23T07:09:07.719Z,63.06
2018-02-23T07:10:08.130Z,63.01
2018-02-23T07:11:08.645Z,62.99
2018-02-23T07:12:09.062Z,62.97
2018-02-23T07:13:09.526Z,62.89
2018-02-23T07:14:10.040Z,62.81
2018-02-23T07:15:10.457Z,62.74
2018-02-23T07:17:11.381Z,62.61
2018-02-23T07:19:12.314Z,62.44
2018-02-23T07:20:12.778Z,62.39
2018-02-23T07:21:13.244Z,62.31
2018-02-23T07:22:13.764Z,62.19
2018-02-23T07:23:14.169Z,62.14
2018-02-23T07:24:14.690Z,62.06
2018-02-23T07:25:15.105Z,62.02
2018-02-23T07:26:15.569Z,62.00
2018-02-23T07:27:16.035Z,61.95
2018-02-23T07:28:16.500Z,61.93
2018-02-23T07:29:28.399Z,61.89
2018-02-23T07:30:17.431Z,61.90
2018-02-23T07:31:17.895Z,61.94
2018-02-23T07:32:18.357Z,61.95
2018-02-23T07:33:18.835Z,61.94
2018-02-23T07:36:20.224Z,61.95
2018-02-23T07:37:20.685Z,61.88
2018-02-23T07:38:21.156Z,61.84
2018-02-23T07:39:21.674Z,61.83
2018-02-23T07:40:22.089Z,61.63
2018-02-23T07:41:22.553Z,61.61
2018-02-23T07:42:23.025Z,61.47
2018-02-23T07:43:23.484Z,61.32
2018-02-23T07:44:35.387Z,61.20
2018-02-23T07:45:24.412Z,60.94
2018-02-23T07:46:24.886Z,60.74
2018-02-23T07:47:25.350Z,60.62
2018-02-23T07:48:25.813Z,60.41
2018-02-23T07:49:26.283Z,60.31
2018-02-23T07:50:26.752Z,60.16
2018-02-23T07:51:27.214Z,59.96
2018-02-23T07:52:27.685Z,59.91
2018-02-23T07:53:28.150Z,59.79
2018-02-23T07:54:28.665Z,59.61
2018-02-23T07:55:29.081Z,59.37
2018-02-23T07:56:29.593Z,59.13
2018-02-23T07:57:30.013Z,59.03
2018-02-23T07:58:30.480Z,58.87
2018-02-23T07:59:30.946Z,58.72
2018-02-23T08:00:31.408Z,58.70
2018-02-23T08:01:31.880Z,58.49
2018-02-23T08:02:32.340Z,58.27
2018-02-23T08:03:32.814Z,58.25
2018-02-23T08:04:33.333Z,58.20
2018-02-23T08:05:33.753Z,58.12
2018-02-23T08:06:34.208Z,58.10
2018-02-23T08:07:34.682Z,58.05
2018-02-23T08:08:35.149Z,57.95
2018-02-23T08:09:35.659Z,57.93
2018-02-23T08:11:36.548Z,57.85
2018-02-23T08:12:37.014Z,57.75
2018-02-23T08:13:37.481Z,57.81
2018-02-23T08:14:49.432Z,57.88
2018-02-23T08:15:38.414Z,57.85
2018-02-23T08:16:38.882Z,57.98
2018-02-23T08:18:39.815Z,57.88
2018-02-23T08:19:40.535Z,58.09
2018-02-23T08:20:40.749Z,58.07
2018-02-23T08:21:41.286Z,58.02
2018-02-23T08:23:42.152Z,57.88
2018-02-23T08:24:42.618Z,57.75
2018-02-23T08:25:43.088Z,57.62
2018-02-23T08:27:44.022Z,57.65
2018-02-23T08:28:44.492Z,57.66
2018-02-23T08:29:45.009Z,57.31
2018-02-23T08:30:45.426Z,57.27
2018-02-23T08:31:45.895Z,57.36
2018-02-23T08:32:46.357Z,57.15
2018-02-23T08:34:47.298Z,57.23
2018-02-23T08:35:47.764Z,57.11
2018-02-23T08:36:48.236Z,57.06
2018-02-23T08:37:48.707Z,57.05
2018-02-23T08:38:49.172Z,56.95
2018-02-23T08:39:49.634Z,56.76
2018-02-23T08:40:50.110Z,56.75
2018-02-23T08:41:50.576Z,56.65
2018-02-23T08:42:51.045Z,56.61
2018-02-23T08:43:51.513Z,56.34
2018-02-23T08:44:52.181Z,56.35
2018-02-23T08:45:52.451Z,56.34
2018-02-23T08:46:52.918Z,56.24
2018-02-23T08:47:53.389Z,56.05
2018-02-23T08:48:53.855Z,55.89
2018-02-23T08:49:54.372Z,55.73
2018-02-23T08:50:54.795Z,55.55
2018-02-23T08:51:55.263Z,55.44
2018-02-23T08:52:55.734Z,55.26
2018-02-23T08:53:56.206Z,55.04
2018-02-23T08:54:56.722Z,55.02
2018-02-23T08:55:57.141Z,54.92
2018-02-23T08:56:57.605Z,54.82
2018-02-23T08:57:58.081Z,54.57
2018-02-23T08:58:58.549Z,54.59
2018-02-23T08:59:59.068Z,54.42
2018-02-23T09:00:59.488Z,54.35
2018-02-23T09:01:59.961Z,54.19
2018-02-23T09:03:00.432Z,54.18
2018-02-23T09:04:00.892Z,54.22
2018-02-23T09:05:01.422Z,54.15
2018-02-23T09:06:01.840Z,53.99
2018-02-23T09:07:02.307Z,53.86
2018-02-23T09:08:02.778Z,53.85
2018-02-23T09:09:03.247Z,53.63
2018-02-23T09:10:03.719Z,53.53
2018-02-23T09:11:04.182Z,53.48
2018-02-23T09:12:04.658Z,53.35
2018-02-23T09:13:05.129Z,53.25
2018-02-23T09:14:05.600Z,53.03
2018-02-23T09:15:06.267Z,52.93
2018-02-23T09:16:06.540Z,52.97
2018-02-23T09:17:07.011Z,52.58
2018-02-23T09:18:07.482Z,52.41
2018-02-23T09:19:07.954Z,52.37
2018-02-23T09:20:08.475Z,52.09
2018-02-23T09:21:08.895Z,51.90
2018-02-23T09:22:09.365Z,51.76
2018-02-23T09:23:09.829Z,51.78
2018-02-23T09:24:10.307Z,51.19
2018-02-23T09:25:10.780Z,51.05
2018-02-23T09:26:11.250Z,50.68
2018-02-23T09:27:11.714Z,50.42
2018-02-23T09:28:12.193Z,50.22
2018-02-23T09:30:13.134Z,50.21
2018-02-23T09:31:13.603Z,49.89
2018-02-23T09:32:14.078Z,49.90
2018-02-23T09:33:14.547Z,49.76
2018-02-23T09:34:15.016Z,49.65
2018-02-23T09:35:15.489Z,49.82
2018-02-23T09:36:15.959Z,49.64
2018-02-23T09:37:16.432Z,49.53
2018-02-23T09:38:16.898Z,49.57
2018-02-23T09:39:17.374Z,49.43
2018-02-23T09:40:17.897Z,49.11
2018-02-23T09:41:18.318Z,49.15
2018-02-23T09:42:18.791Z,49.19
2018-02-23T09:43:19.260Z,48.75
2018-02-23T09:45:20.257Z,48.56
2018-02-23T09:46:20.679Z,48.48
2018-02-23T09:47:21.148Z,48.40
2018-02-23T09:48:21.622Z,48.32
2018-02-23T09:49:22.094Z,48.15
2018-02-23T09:50:34.507Z,48.10
2018-02-23T09:51:23.032Z,47.93
2018-02-23T09:52:23.509Z,47.63
2018-02-23T09:53:23.984Z,47.52
2018-02-23T09:54:24.455Z,47.35
2018-02-23T09:56:25.448Z,47.04
2018-02-23T09:57:25.871Z,46.89
2018-02-23T09:58:26.342Z,46.75
2018-02-23T09:59:26.815Z,46.61
2018-02-23T10:00:27.288Z,46.52
2018-02-23T10:01:27.760Z,46.32
2018-02-23T10:02:28.229Z,46.02
2018-02-23T10:03:28.709Z,45.91
2018-02-23T10:04:29.178Z,45.79
2018-02-23T10:05:29.652Z,45.49
2018-02-23T10:06:30.125Z,45.38
2018-02-23T10:07:30.599Z,45.20
2018-02-23T10:08:31.076Z,45.03
2018-02-23T10:09:31.543Z,44.91
2018-02-23T10:10:32.016Z,44.61
2018-02-23T10:11:32.489Z,44.52
2018-02-23T10:12:32.964Z,44.29
2018-02-23T10:13:33.631Z,44.14
2018-02-23T10:14:34.113Z,43.93
2018-02-23T10:15:34.381Z,43.62
2018-02-23T10:17:46.813Z,43.17
2018-02-23T10:18:35.801Z,42.99
2018-02-23T10:19:36.273Z,42.87
2018-02-23T10:20:36.742Z,42.57
2018-02-23T10:21:37.224Z,42.38
2018-02-23T10:22:37.694Z,42.36
2018-02-23T10:23:38.196Z,42.21
2018-02-23T10:24:38.636Z,42.10
2018-02-23T10:25:39.114Z,41.72
2018-02-23T10:26:39.590Z,41.86
2018-02-23T10:27:40.113Z,41.43
2018-02-23T10:28:40.541Z,41.34
2018-02-23T10:29:41.008Z,41.15
2018-02-23T10:30:41.482Z,40.87
2018-02-23T10:31:41.951Z,40.85
2018-02-23T10:32:42.503Z,40.66
2018-02-23T10:34:43.377Z,40.26
2018-02-23T10:35:43.845Z,40.27
2018-02-23T10:37:44.796Z,39.90
2018-02-23T10:38:45.271Z,39.58
2018-02-23T10:39:45.745Z,39.33
2018-02-23T10:40:46.218Z,39.14
2018-02-23T10:41:46.693Z,39.15
2018-02-23T10:42:47.213Z,38.96
2018-02-23T10:43:47.644Z,38.77
2018-02-23T10:44:48.117Z,38.52
2018-02-23T10:45:48.589Z,38.46
2018-02-23T10:46:49.062Z,38.47
2018-02-23T10:47:49.584Z,38.45
2018-02-23T10:49:50.486Z,37.91
2018-02-23T10:50:50.956Z,37.88
2018-02-23T10:51:51.430Z,37.79
2018-02-23T10:52:51.900Z,37.73
2018-02-23T10:54:52.858Z,37.22
2018-02-23T10:55:53.328Z,37.36
2018-02-23T10:56:53.797Z,37.04
2018-02-23T10:57:54.275Z,36.64
2018-02-23T10:58:54.781Z,36.78
2018-02-23T10:59:55.223Z,36.78
2018-02-23T11:00:55.699Z,36.52
2018-02-23T11:01:56.171Z,36.65
2018-02-23T11:02:56.699Z,36.42
2018-02-23T11:03:57.120Z,36.59
2018-02-23T11:04:57.597Z,36.66
2018-02-23T11:05:58.074Z,36.53
2018-02-23T11:06:58.540Z,36.53
2018-02-23T11:07:59.019Z,36.33
2018-02-23T11:08:59.491Z,36.20
2018-02-23T11:09:59.969Z,36.27
2018-02-23T11:11:00.440Z,36.14
2018-02-23T11:12:00.915Z,36.20
2018-02-23T11:13:01.394Z,36.24
2018-02-23T11:14:01.862Z,36.27
2018-02-23T11:15:02.342Z,36.13
2018-02-23T11:16:02.816Z,36.27
2018-02-23T11:17:03.289Z,36.01
2018-02-23T11:18:03.765Z,35.94
2018-02-23T11:19:04.238Z,36.04
2018-02-23T11:20:04.715Z,36.05
2018-02-23T11:21:05.193Z,36.08
2018-02-23T11:23:06.134Z,35.89
2018-02-23T11:25:07.087Z,35.73
2018-02-23T11:26:07.563Z,35.53
2018-02-23T11:27:08.039Z,35.56
2018-02-23T11:28:08.563Z,35.33
2018-02-23T11:29:08.980Z,35.30
2018-02-23T11:30:09.463Z,35.17
2018-02-23T11:31:09.937Z,35.07
2018-02-23T11:32:10.411Z,35.23
2018-02-23T11:33:10.885Z,35.20
2018-02-23T11:34:11.361Z,35.24
2018-02-23T11:35:11.836Z,35.10
2018-02-23T11:36:12.312Z,35.04
2018-02-23T11:37:12.785Z,35.10
2018-02-23T11:39:13.740Z,35.17
2018-02-23T11:40:14.206Z,35.20
2018-02-23T11:41:14.687Z,35.29
2018-02-23T11:42:15.163Z,35.49
2018-02-23T11:43:15.689Z,35.48
2018-02-23T11:44:16.108Z,35.54
2018-02-23T11:45:16.790Z,35.60
2018-02-23T11:46:17.067Z,35.73
2018-02-23T11:48:18.059Z,36.12
2018-02-23T11:50:18.975Z,36.50
2018-02-23T11:51:19.442Z,36.62
2018-02-23T11:52:19.914Z,36.71
2018-02-23T11:53:20.441Z,36.80
2018-02-23T11:54:20.867Z,36.99
2018-02-23T11:55:21.337Z,37.12
2018-02-23T11:56:21.816Z,37.38
2018-02-23T11:57:22.292Z,37.50
2018-02-23T11:58:22.816Z,37.63
2018-02-23T11:59:23.239Z,37.81
2018-02-23T12:00:23.715Z,37.97
2018-02-23T12:01:24.185Z,37.93
2018-02-23T12:03:25.388Z,38.24
2018-02-23T12:04:25.606Z,38.27
2018-02-23T12:05:26.076Z,38.56
2018-02-23T12:06:26.552Z,38.55
2018-02-23T12:07:27.027Z,38.68
2018-02-23T12:08:27.544Z,38.83
2018-02-23T12:10:28.643Z,38.92
2018-02-23T12:11:28.913Z,39.01
2018-02-23T12:12:29.385Z,39.10
2018-02-23T12:13:29.858Z,39.23
2018-02-23T12:14:30.328Z,39.41
2018-02-23T12:15:30.799Z,39.54
2018-02-23T12:16:31.270Z,39.56
2018-02-23T12:17:31.737Z,39.53
2018-02-23T12:18:32.262Z,39.85
2018-02-23T12:19:32.685Z,40.00
2018-02-23T12:20:33.156Z,40.16
2018-02-23T12:21:33.624Z,40.09
2018-02-23T12:22:34.097Z,40.41
2018-02-23T12:23:34.570Z,40.47
2018-02-23T12:24:35.039Z,40.53
2018-02-23T12:25:35.509Z,40.36
2018-02-23T12:26:35.977Z,40.55
2018-02-23T12:27:36.452Z,40.51
2018-02-23T12:28:36.972Z,40.70
2018-02-23T12:29:37.396Z,40.89
2018-02-23T12:30:37.862Z,40.88
2018-02-23T12:31:38.340Z,40.98
2018-02-23T12:32:38.809Z,41.16
2018-02-23T12:33:39.275Z,41.32
2018-02-23T12:34:39.751Z,41.28
2018-02-23T12:35:40.224Z,41.31
2018-02-23T12:36:40.700Z,41.43
2018-02-23T12:38:41.691Z,41.65
2018-02-23T12:39:42.118Z,41.78
2018-02-23T12:40:42.586Z,41.93
2018-02-23T12:41:43.056Z,41.93
2018-02-23T12:42:43.531Z,42.18
2018-02-23T12:43:44.056Z,42.21
2018-02-23T12:44:44.468Z,42.27
2018-02-23T12:45:44.946Z,42.42
2018-02-23T12:46:45.419Z,42.55
2018-02-23T12:47:45.892Z,42.55
2018-02-23T12:49:46.833Z,42.67
2018-02-23T12:50:47.310Z,42.76
2018-02-23T12:51:47.786Z,42.73
2018-02-23T12:52:48.256Z,42.59
2018-02-23T12:53:48.737Z,42.72
2018-02-23T12:54:49.203Z,42.68
2018-02-23T12:55:49.677Z,42.68
2018-02-23T12:57:50.623Z,42.77
2018-02-23T12:58:51.097Z,42.86
2018-02-23T12:59:51.572Z,42.77
2018-02-23T13:00:52.046Z,42.76
2018-02-23T13:01:52.519Z,42.89
2018-02-23T13:02:52.993Z,42.95
2018-02-23T13:03:53.468Z,43.01
2018-02-23T13:04:53.935Z,43.07
2018-02-23T13:05:54.415Z,43.04
2018-02-23T13:06:54.890Z,43.13
2018-02-23T13:07:55.365Z,43.25
2018-02-23T13:08:55.836Z,43.50
2018-02-23T13:09:56.313Z,43.53
2018-02-23T13:10:56.787Z,43.56
2018-02-23T13:11:57.262Z,43.62
2018-02-23T13:13:58.208Z,43.99
2018-02-23T13:14:58.883Z,43.80
2018-02-23T13:15:59.157Z,43.74
2018-02-23T13:16:59.628Z,43.99
2018-02-23T13:18:00.108Z,44.11
2018-02-23T13:19:00.633Z,44.14
2018-02-23T13:20:01.060Z,44.45
2018-02-23T13:21:01.527Z,44.36
2018-02-23T13:22:02.007Z,44.29
2018-02-23T13:24:03.007Z,44.04
2018-02-23T13:25:03.431Z,44.22
2018-02-23T13:26:03.905Z,44.53
2018-02-23T13:27:04.378Z,44.44
2018-02-23T13:28:04.859Z,44.40
2018-02-23T13:29:05.331Z,44.65
2018-02-23T13:30:05.804Z,44.65
2018-02-23T13:31:06.284Z,44.46
2018-02-23T13:32:06.756Z,44.64
2018-02-23T13:33:07.231Z,44.77
2018-02-23T13:35:08.179Z,44.86
2018-02-23T13:36:08.656Z,45.01
2018-02-23T13:37:09.130Z,45.22
2018-02-23T13:38:09.606Z,45.35
2018-02-23T13:39:10.078Z,45.59
2018-02-23T13:40:10.556Z,45.59
2018-02-23T13:41:11.033Z,45.62
2018-02-23T13:42:11.507Z,45.53
2018-02-23T13:43:11.981Z,45.77
2018-02-23T13:44:12.458Z,45.90
2018-02-23T13:45:12.983Z,46.02
2018-02-23T13:46:13.408Z,46.23
2018-02-23T13:47:13.886Z,46.04
2018-02-23T13:48:14.359Z,46.17
2018-02-23T13:49:14.834Z,46.32
2018-02-23T13:52:16.257Z,46.72
2018-02-23T13:53:16.728Z,46.78
2018-02-23T13:54:17.206Z,46.81
2018-02-23T13:55:17.682Z,46.96
2018-02-23T13:56:18.156Z,47.02
2018-02-23T13:57:18.629Z,46.95
2018-02-23T13:58:19.102Z,46.95